Date,TemperatureHighF,TemperatureAvgF,TemperatureLowF,DewpointHighF,DewpointAvgF,DewpointLowF,HumidityHigh,HumidityAvg,HumidityLow,PressureMaxIn,PressureMinIn,WindSpeedMaxMPH,WindSpeedAvgMPH,GustSpeedMaxMPH,PrecipitationSumIn
2013-1-1,47.7,39.2,34.2,15.8,11.5,9.3,32,23,10,29.78,29.72,4,0,8,0.00
2013-1-2,53.8,39.1,31.1,20.1,11.0,4.8,32,22,6,29.79,29.66,5,1,9,0.00
2013-1-3,53.4,46.8,37.8,20.3,16.7,12.2,30,16,8,29.79,29.72,6,2,11,0.00
2013-1-4,51.4,43.6,39.0,19.4,15.7,13.8,30,23,11,29.78,29.72,2,0,3,0.00
2013-1-5,55.6,48.2,40.1,23.4,19.2,14.9,33,19,5,29.81,29.64,6,2,9,0.00
2013-1-6,43.9,42.9,41.0,22.6,20.2,16.2,43,37,28,29.70,29.65,0,0,2,0.00
2013-1-7,54.1,42.0,35.4,23.2,19.4,16.2,53,37,12,29.77,29.68,5,1,8,0.00
2013-1-8,55.0,43.6,37.9,27.1,21.8,18.1,49,39,15,29.78,29.67,6,1,10,0.00
2013-1-9,52.9,44.3,39.2,26.6,21.9,19.0,51,38,16,29.74,29.45,10,1,18,0.36
2013-1-10,45.9,36.8,32.2,26.1,18.6,11.7,58,49,26,29.63,29.54,6,1,9,0.00
2013-1-11,45.0,32.9,27.5,17.2,9.7,5.4,48,36,11,29.74,29.64,6,1,10,0.00
2013-1-12,39.6,32.5,27.3,7.5,2.3,-0.8,23,16,11,29.69,29.65,4,0,4,0.00
2013-1-13,43.9,39.2,32.5,12.2,7.3,1.2,13,11,10,29.76,29.64,64,13,64,0.00
2013-1-14,47.3,34.7,26.6,14.9,2.4,-5.8,13,10,5,29.90,29.71,64,19,64,0.00
2013-1-15,49.1,34.9,28.0,16.7,5.0,-0.8,24,17,10,30.00,29.91,64,10,64,0.00
2013-1-16,56.8,39.4,30.2,23.0,9.9,2.5,32,18,6,29.97,29.80,6,1,9,0.00
2013-1-17,61.5,42.1,32.4,27.3,12.0,3.9,27,16,5,29.84,29.69,5,1,8,0.00
2013-1-18,63.9,46.8,38.7,29.7,14.2,7.0,14,10,5,29.81,29.67,4,0,9,0.00
2013-1-20,43.3,42.6,41.9,11.3,10.9,10.0,13,12,10,29.75,29.73,0,0,0,0.00
2013-1-21,59.5,51.2,45.5,25.3,18.2,13.5,13,8,5,29.70,29.68,2,0,3,0.00
2013-1-22,67.3,49.1,39.0,33.1,16.4,6.6,14,9,5,29.72,29.58,7,1,10,0.00
2013-1-23,65.5,51.8,45.0,31.3,19.3,12.9,23,10,5,29.67,29.58,7,1,11,0.00
2013-1-24,59.7,53.4,50.9,32.0,25.3,20.5,44,22,13,29.74,29.63,5,0,6,0.09
2013-1-25,63.9,54.4,51.6,44.2,37.5,32.0,65,53,38,29.74,29.59,6,1,11,0.36
2013-1-26,54.0,47.8,41.2,34.2,25.7,16.0,50,39,22,29.56,29.51,7,2,13,0.00
2013-1-27,50.2,41.9,37.8,23.7,18.1,12.9,46,34,11,29.67,29.57,9,1,11,0.11
2013-1-28,52.7,38.5,31.3,19.6,12.4,8.2,45,28,8,29.76,29.67,7,1,14,0.00
2013-1-29,56.1,41.5,34.3,22.3,14.6,10.9,38,25,6,29.85,29.75,7,1,14,0.00
2013-1-30,57.7,46.2,37.8,25.3,17.6,12.6,31,21,5,29.88,29.79,7,1,13,0.00
2013-1-31,62.4,46.1,36.0,28.2,20.3,15.1,44,28,5,29.85,29.73,64,4,64,0.00